Impacts TAF Board INFO
FOR SITUATIONAL AWARENESS. NOT TO BE USED FOR FLIGHT PLANNING PURPOSES.
IDs:

KDEN - Denver Intl, CO, US

Issued at 1732 UTC 25 Feb 2018
Updated at 1747 UTC 25 Feb 2018
Potential Impact None Slight Moderate High
Time<<26/18Z 26/19Z 26/20Z 26/21Z 26/22Z 26/23Z 27/00Z 27/01Z 27/02Z 27/03Z 27/04Z 27/05Z 27/06Z
Type PRVL PRVL PRVL PRVL PRVL PRVL
VIS >6 >6 >6 >6 >6 >6
CIG -- -- -- -- -- --
Cover SCT SCT SCT SCT SCT SCT
FltCat VFR VFR VFR VFR VFR VFR
WX -- -- -- -- -- --
WDir 20 20 20 20 20 20
WSpd 6 6 6 6 6 6
WGst -- -- -- -- -- --

Raw TAF
KDEN 251732Z 2518/2624 26017G34KT P6SM FEW080 FEW120
  FM260000 25013KT P6SM FEW100 FEW220
  FM260200 21009KT P6SM SCT220
  FM261400 VRB05KT P6SM SCT220
  FM261800 02006KT P6SM FEW100 SCT220


METAR Board
Radar Display
Forecast Discussion

FOR SITUATIONAL AWARENESS. NOT TO BE USED FOR FLIGHT PLANNING PURPOSES.